createdAt,value
2023-01-31T00:02:04.029Z,98834.50
2023-01-31T00:05:07.678Z,98830.13
2023-01-31T00:08:09.231Z,98826.59
2023-01-31T00:11:11.333Z,98830.13
2023-01-31T00:14:16.235Z,98845.00
2023-01-31T00:17:17.892Z,98835.28
2023-01-31T00:20:20.835Z,98842.31
2023-01-31T00:23:22.367Z,98840.56
2023-01-31T00:26:29.843Z,98842.31
2023-01-31T00:29:31.958Z,98840.56
2023-01-31T00:32:33.674Z,98841.47
2023-01-31T00:35:40.107Z,98830.06
2023-01-31T00:38:45.401Z,98830.03
2023-01-31T00:41:47.498Z,98825.63
2023-01-31T00:44:49.365Z,98830.03
2023-01-31T00:47:52.439Z,98838.81
2023-01-31T00:50:55.569Z,98842.31
2023-01-31T00:53:57.582Z,98844.97
2023-01-31T00:56:59.242Z,98839.69
2023-01-31T01:00:02.346Z,98829.19
2023-01-31T01:03:04.247Z,98839.72
2023-01-31T01:06:07.668Z,98855.56
2023-01-31T01:09:09.602Z,98855.53
2023-01-31T01:12:11.335Z,98852.88
2023-01-31T01:15:13.022Z,98855.50
2023-01-31T01:18:15.993Z,98852.88
2023-01-31T01:21:19.752Z,98848.47
2023-01-31T01:24:21.405Z,98850.22
2023-01-31T01:27:23.353Z,98849.34
2023-01-31T01:30:25.038Z,98851.97
2023-01-31T01:33:26.893Z,98850.25
2023-01-31T01:36:34.572Z,98849.38
2023-01-31T01:39:36.282Z,98841.47
2023-01-31T01:42:38.125Z,98845.84
2023-01-31T01:45:39.728Z,98866.91
2023-01-31T01:48:42.273Z,98860.75
2023-01-31T01:51:46.114Z,98868.66
2023-01-31T01:54:50.180Z,98868.66
2023-01-31T01:57:54.717Z,98876.56
2023-01-31T02:00:56.551Z,98868.66
2023-01-31T02:03:58.300Z,98885.31
2023-01-31T02:07:02.797Z,98873.91
2023-01-31T02:10:07.706Z,98883.56
2023-01-31T02:13:09.823Z,98872.16
2023-01-31T02:16:11.590Z,98876.53
2023-01-31T02:19:20.041Z,98880.94
2023-01-31T02:22:27.400Z,98892.34
2023-01-31T02:25:48.046Z,98886.19
2023-01-31T02:29:03.985Z,98893.25
2023-01-31T02:32:24.992Z,98889.75
2023-01-31T02:35:34.683Z,98893.28
2023-01-31T02:38:41.696Z,98909.97
2023-01-31T02:41:48.093Z,98898.63
2023-01-31T02:45:02.138Z,98888.97
2023-01-31T02:48:09.107Z,98897.75
2023-01-31T02:51:20.537Z,98904.75
2023-01-31T02:54:46.230Z,98903.91
2023-01-31T02:57:49.250Z,98904.84
2023-01-31T03:00:51.025Z,98911.88
2023-01-31T03:03:57.444Z,98922.38
2023-01-31T03:07:01.954Z,98911.88
2023-01-31T03:10:16.078Z,98903.94
2023-01-31T03:13:28.404Z,98899.56
2023-01-31T03:16:53.632Z,98898.75
2023-01-31T03:20:00.559Z,98901.38
2023-01-31T03:23:08.058Z,98891.72
2023-01-31T03:26:10.732Z,98891.72
2023-01-31T03:29:16.453Z,98886.47
2023-01-31T03:32:23.779Z,98880.31
2023-01-31T03:35:29.372Z,98873.28
2023-01-31T03:38:34.394Z,98864.50
2023-01-31T03:41:41.942Z,98868.91
2023-01-31T03:44:46.198Z,98874.16
2023-01-31T03:47:50.025Z,98876.81
2023-01-31T03:50:58.659Z,98876.84
2023-01-31T03:54:03.718Z,98876.91
2023-01-31T03:57:08.588Z,98883.03
2023-01-31T04:00:13.187Z,98887.41
2023-01-31T04:03:27.896Z,98883.94
2023-01-31T04:06:31.210Z,98874.25
2023-01-31T04:09:33.609Z,98890.06
2023-01-31T04:12:35.765Z,98887.44
2023-01-31T04:15:37.594Z,98875.19
2023-01-31T04:18:39.145Z,98865.59
2023-01-31T04:21:42.592Z,98869.97
2023-01-31T04:24:44.221Z,98869.13
2023-01-31T04:27:45.870Z,98862.09
2023-01-31T04:30:51.792Z,98865.63
2023-01-31T04:33:53.559Z,98864.75
2023-01-31T04:36:56.579Z,98872.69
2023-01-31T04:39:58.323Z,98875.31
2023-01-31T04:42:59.804Z,98877.06
2023-01-31T04:46:01.518Z,98869.16
2023-01-31T04:49:03.136Z,98859.47
2023-01-31T04:52:06.311Z,98869.13
2023-01-31T04:55:09.233Z,98853.34
2023-01-31T04:58:10.800Z,98855.09
2023-01-31T05:01:12.483Z,98855.09
2023-01-31T05:04:14.014Z,98865.66
2023-01-31T05:07:16.993Z,98862.97
2023-01-31T05:10:19.026Z,98865.59
2023-01-31T05:13:20.815Z,98857.69
2023-01-31T05:16:22.505Z,98852.41
2023-01-31T05:19:24.118Z,98846.28
2023-01-31T05:22:27.921Z,98855.06
2023-01-31T05:25:31.538Z,98854.16
2023-01-31T05:28:33.906Z,98846.28
2023-01-31T05:31:35.981Z,98853.28
2023-01-31T05:34:37.892Z,98833.94
2023-01-31T05:37:44.968Z,98839.19
2023-01-31T05:40:46.888Z,98833.03
2023-01-31T05:43:48.469Z,98812.84
2023-01-31T05:46:50.925Z,98818.13
2023-01-31T05:49:52.794Z,98831.25
2023-01-31T05:52:56.770Z,98818.06
2023-01-31T05:55:58.345Z,98825.06
2023-01-31T05:59:02.630Z,98818.03
2023-01-31T06:02:04.326Z,98812.72
2023-01-31T06:05:06.050Z,98803.03
2023-01-31T06:08:09.136Z,98802.16
2023-01-31T06:11:11.444Z,98817.94
2023-01-31T06:14:13.082Z,98803.88
2023-01-31T06:17:15.788Z,98801.22
2023-01-31T06:20:17.783Z,98809.94
2023-01-31T06:23:20.988Z,98802.03
2023-01-31T06:26:22.842Z,98801.09
2023-01-31T06:29:24.521Z,98810.69
2023-01-31T06:32:26.421Z,98824.72
2023-01-31T06:35:28.400Z,98813.28
2023-01-31T06:38:32.003Z,98792.19
2023-01-31T06:41:34.810Z,98797.41
2023-01-31T06:44:37.885Z,98779.84
2023-01-31T06:47:39.685Z,98773.69
2023-01-31T06:50:41.194Z,98771.03
2023-01-31T06:53:44.203Z,98783.28
2023-01-31T06:56:45.838Z,98779.75
2023-01-31T06:59:47.717Z,98779.69
2023-01-31T07:02:49.460Z,98778.81
2023-01-31T07:05:51.114Z,98781.44
2023-01-31T07:08:54.278Z,98775.25
2023-01-31T07:11:55.796Z,98777.88
2023-01-31T07:14:57.438Z,98769.97
2023-01-31T07:17:59.342Z,98762.06
2023-01-31T07:21:00.989Z,98756.78
2023-01-31T07:24:04.414Z,98771.66
2023-01-31T07:27:06.210Z,98757.59
2023-01-31T07:30:08.539Z,98760.22
2023-01-31T07:33:10.370Z,98765.47
2023-01-31T07:36:13.797Z,98748.78
2023-01-31T07:39:19.135Z,98743.53
2023-01-31T07:42:23.770Z,98739.13
2023-01-31T07:45:27.392Z,98734.72
2023-01-31T07:48:29.788Z,98725.03
2023-01-31T07:51:31.472Z,98723.25
2023-01-31T07:54:35.166Z,98723.22
2023-01-31T07:57:36.905Z,98736.41
2023-01-31T08:00:57.025Z,98719.63
2023-01-31T08:04:02.835Z,98712.59
2023-01-31T08:07:12.814Z,98709.03
2023-01-31T08:10:17.991Z,98709.84
2023-01-31T08:13:19.616Z,98704.56
2023-01-31T08:16:26.162Z,98706.25
2023-01-31T08:19:27.851Z,98687.81
2023-01-31T08:22:29.407Z,98686.00
2023-01-31T08:25:32.896Z,98704.41
2023-01-31T08:28:34.711Z,98700.81
2023-01-31T08:31:36.600Z,98707.88
2023-01-31T08:34:38.303Z,98685.00
2023-01-31T08:37:39.960Z,98676.22
2023-01-31T08:40:43.521Z,98671.78
2023-01-31T08:43:55.862Z,98672.69
2023-01-31T08:47:01.842Z,98654.22
2023-01-31T08:50:03.802Z,98641.78
2023-01-31T08:53:05.917Z,98631.16
2023-01-31T08:56:09.480Z,98633.78
2023-01-31T08:59:12.189Z,98619.72
2023-01-31T09:02:13.745Z,98623.97
2023-01-31T09:05:15.419Z,98627.44
2023-01-31T09:08:17.092Z,98640.66
2023-01-31T09:11:20.738Z,98623.09
2023-01-31T09:14:22.286Z,98625.72
2023-01-31T09:17:24.197Z,98636.28
2023-01-31T09:20:25.794Z,98632.84
2023-01-31T09:23:27.545Z,98636.53
2023-01-31T09:26:30.967Z,98642.78
2023-01-31T09:29:33.584Z,98636.75
2023-01-31T09:32:35.624Z,98619.22
2023-01-31T09:35:37.185Z,98623.72
2023-01-31T09:38:39.121Z,98616.69
2023-01-31T09:41:44.879Z,98620.31
2023-01-31T09:44:48.390Z,98611.63
2023-01-31T09:47:52.469Z,98601.19
2023-01-31T09:50:56.177Z,98594.16
2023-01-31T09:53:58.111Z,98589.03
2023-01-31T09:57:05.153Z,98576.81
2023-01-31T10:00:13.103Z,98581.25
2023-01-31T10:03:32.314Z,98597.09
2023-01-31T10:06:36.593Z,98609.44
2023-01-31T10:09:41.024Z,98607.66
2023-01-31T10:12:46.993Z,98590.97
2023-01-31T10:15:50.984Z,98589.22
2023-01-31T10:18:54.751Z,98597.06
2023-01-31T10:22:00.728Z,98609.34
2023-01-31T10:25:09.032Z,98590.88
2023-01-31T10:28:14.071Z,98584.72
2023-01-31T10:31:23.017Z,98578.56
2023-01-31T10:34:26.882Z,98564.47
2023-01-31T10:37:32.730Z,98571.47
2023-01-31T10:40:36.914Z,98569.66
2023-01-31T10:43:44.574Z,98562.63
2023-01-31T10:46:46.998Z,98559.94
2023-01-31T10:49:49.484Z,98555.53
2023-01-31T10:53:05.507Z,98546.78
2023-01-31T10:56:07.779Z,98530.06
2023-01-31T10:59:14.513Z,98532.66
2023-01-31T11:02:19.246Z,98521.22
2023-01-31T11:05:23.020Z,98515.94
2023-01-31T11:08:33.430Z,98523.78
2023-01-31T11:11:52.241Z,98497.38
2023-01-31T11:15:07.040Z,98482.41
2023-01-31T11:18:14.068Z,98474.38
2023-01-31T11:21:20.227Z,98475.25
2023-01-31T11:24:22.869Z,98477.84
2023-01-31T11:27:26.726Z,98463.78
2023-01-31T11:30:31.365Z,98468.16
2023-01-31T11:33:41.067Z,98444.41
2023-01-31T11:36:43.858Z,98446.16
2023-01-31T11:39:54.420Z,98411.88
2023-01-31T11:42:56.899Z,98428.59
2023-01-31T11:46:00.796Z,98449.69
2023-01-31T11:49:10.310Z,98433.78
2023-01-31T11:52:13.747Z,98397.75
2023-01-31T11:55:17.727Z,98414.38
2023-01-31T11:58:24.274Z,98407.22
2023-01-31T12:01:27.678Z,98423.94
2023-01-31T12:04:32.154Z,98417.78
2023-01-31T12:07:42.200Z,98423.94
2023-01-31T12:10:45.728Z,98423.09
2023-01-31T12:13:48.143Z,98412.56
2023-01-31T12:16:53.904Z,98409.84
2023-01-31T12:20:05.589Z,98392.28
2023-01-31T12:23:18.938Z,98382.59
2023-01-31T12:26:25.094Z,98368.50
2023-01-31T12:29:34.515Z,98382.56
2023-01-31T12:32:50.096Z,98360.59
2023-01-31T12:35:57.243Z,98365.81
2023-01-31T12:39:04.441Z,98371.03
2023-01-31T12:42:17.099Z,98366.66
2023-01-31T12:45:25.649Z,98374.53
2023-01-31T12:48:51.372Z,98370.13
2023-01-31T12:52:00.908Z,98345.50
2023-01-31T12:55:14.582Z,98335.72
2023-01-31T12:58:26.765Z,98356.88
2023-01-31T13:01:32.324Z,98362.94
2023-01-31T13:04:38.842Z,98363.84
2023-01-31T13:07:45.713Z,98355.00
2023-01-31T13:10:51.034Z,98378.69
2023-01-31T13:13:56.162Z,98368.97
2023-01-31T13:17:01.043Z,98367.19
2023-01-31T13:20:07.111Z,98376.81
2023-01-31T13:23:13.867Z,98375.91
2023-01-31T13:26:18.995Z,98375.00
2023-01-31T13:29:23.633Z,98390.84
2023-01-31T13:32:27.545Z,98382.06
2023-01-31T13:35:32.459Z,98385.53
2023-01-31T13:38:37.586Z,98378.47
2023-01-31T13:41:40.147Z,98388.13
2023-01-31T13:44:41.926Z,98386.31
2023-01-31T13:47:46.517Z,98386.31
2023-01-31T13:50:50.832Z,98393.28
2023-01-31T13:53:57.645Z,98373.03
2023-01-31T13:57:00.344Z,98371.28
2023-01-31T14:00:05.434Z,98373.00
2023-01-31T14:03:08.636Z,98363.31
2023-01-31T14:06:10.265Z,98356.22
2023-01-31T14:09:22.921Z,98378.16
2023-01-31T14:12:34.606Z,98353.47
2023-01-31T14:15:46.954Z,98349.91
2023-01-31T14:18:48.673Z,98349.88
2023-01-31T14:21:52.472Z,98359.53
2023-01-31T14:25:02.611Z,98354.19
2023-01-31T14:28:04.476Z,98347.09
2023-01-31T14:31:12.602Z,98359.41
2023-01-31T14:34:15.849Z,98353.19
2023-01-31T14:37:26.870Z,98360.22
2023-01-31T14:40:30.617Z,98368.97
2023-01-31T14:43:42.903Z,98357.50
2023-01-31T14:47:01.225Z,98359.19
2023-01-31T14:50:17.330Z,98359.09
2023-01-31T14:53:31.365Z,98376.72
2023-01-31T14:56:41.473Z,98368.69
2023-01-31T14:59:47.342Z,98361.66
2023-01-31T15:02:51.545Z,98366.84
2023-01-31T15:05:56.892Z,98373.94
2023-01-31T15:09:13.352Z,98356.28
2023-01-31T15:12:29.853Z,98362.44
2023-01-31T15:15:35.629Z,98361.47
2023-01-31T15:18:37.560Z,98370.25
2023-01-31T15:21:42.812Z,98374.59
2023-01-31T15:24:45.786Z,98361.34
2023-01-31T15:27:47.817Z,98386.84
2023-01-31T15:30:52.582Z,98386.78
2023-01-31T15:33:57.848Z,98386.75
2023-01-31T15:37:04.227Z,98383.09
2023-01-31T15:40:12.438Z,98384.81
2023-01-31T15:43:18.589Z,98411.13
2023-01-31T15:46:26.937Z,98389.03
2023-01-31T15:49:39.148Z,98388.03
2023-01-31T15:52:44.943Z,98381.88
2023-01-31T15:55:47.120Z,98388.88
2023-01-31T15:58:50.287Z,98391.41
2023-01-31T16:01:58.418Z,98379.06
2023-01-31T16:05:00.384Z,98371.91
2023-01-31T16:08:04.045Z,98381.56
2023-01-31T16:11:09.786Z,98389.50
2023-01-31T16:14:11.819Z,98388.56
2023-01-31T16:17:15.675Z,98390.19
2023-01-31T16:20:36.649Z,98403.31
2023-01-31T16:23:38.409Z,98388.25
2023-01-31T16:26:41.361Z,98389.06
2023-01-31T16:29:44.197Z,98381.97
2023-01-31T16:36:13.692Z,98377.34
2023-01-31T16:39:31.514Z,98366.72
2023-01-31T16:42:35.314Z,98370.16
2023-01-31T16:45:37.108Z,98378.03
2023-01-31T16:48:40.376Z,98379.75
2023-01-31T16:51:43.771Z,98385.16
2023-01-31T16:54:49.029Z,98398.31
2023-01-31T16:57:50.883Z,98386.81
2023-01-31T17:00:56.670Z,98390.13
2023-01-31T17:04:02.116Z,98377.97
2023-01-31T17:07:06.780Z,98390.34
2023-01-31T17:10:09.426Z,98394.69
2023-01-31T17:13:16.409Z,98407.00
2023-01-31T17:16:25.007Z,98408.75
2023-01-31T17:19:26.719Z,98406.91
2023-01-31T17:22:30.244Z,98423.66
2023-01-31T17:25:33.176Z,98417.44
2023-01-31T17:28:35.124Z,98420.91
2023-01-31T17:31:36.877Z,98407.69
2023-01-31T17:34:38.730Z,98416.56
2023-01-31T17:37:41.871Z,98400.81
2023-01-31T17:40:44.696Z,98413.97
2023-01-31T17:43:46.499Z,98417.59
2023-01-31T17:46:48.241Z,98432.56
2023-01-31T17:49:50.308Z,98432.41
2023-01-31T17:52:53.969Z,98429.88
2023-01-31T17:55:55.860Z,98435.31
2023-01-31T17:58:57.583Z,98430.13
2023-01-31T18:02:00.530Z,98419.56
2023-01-31T18:05:02.337Z,98416.00
2023-01-31T18:08:05.528Z,98406.25
2023-01-31T18:11:07.784Z,98407.09
2023-01-31T18:14:09.690Z,98413.97
2023-01-31T18:17:11.291Z,98398.94
2023-01-31T18:20:12.948Z,98407.69
2023-01-31T18:23:16.027Z,98401.28
2023-01-31T18:26:18.306Z,98433.09
2023-01-31T18:29:20.941Z,98419.97
2023-01-31T18:32:22.639Z,98415.66
2023-01-31T18:35:24.976Z,98424.41
2023-01-31T18:38:30.622Z,98419.13
2023-01-31T18:41:32.324Z,98429.06
2023-01-31T18:44:33.956Z,98421.13
2023-01-31T18:47:35.616Z,98413.22
2023-01-31T18:50:40.679Z,98414.13
2023-01-31T18:53:44.663Z,98414.13
2023-01-31T18:56:46.234Z,98422.06
2023-01-31T18:59:47.863Z,98422.19
2023-01-31T19:02:49.681Z,98423.06
2023-01-31T19:05:51.179Z,98420.41
2023-01-31T19:08:54.830Z,98425.75
2023-01-31T19:11:56.344Z,98435.50
2023-01-31T19:14:57.906Z,98439.88
2023-01-31T19:17:59.677Z,98445.22
2023-01-31T19:21:01.343Z,98451.28
2023-01-31T19:24:05.643Z,98439.78
2023-01-31T19:27:07.663Z,98438.16
2023-01-31T19:30:10.065Z,98427.56
2023-01-31T19:33:11.661Z,98427.47
2023-01-31T19:36:14.533Z,98419.50
2023-01-31T19:39:17.620Z,98438.97
2023-01-31T19:42:20.586Z,98439.06
2023-01-31T19:45:22.615Z,98435.47
2023-01-31T19:48:24.309Z,98442.53
2023-01-31T19:51:26.821Z,98454.81
2023-01-31T19:54:30.025Z,98469.91
2023-01-31T19:57:31.781Z,98473.53
2023-01-31T20:00:33.345Z,98485.88
2023-01-31T20:03:35.484Z,98488.56
2023-01-31T20:06:37.112Z,98487.66
2023-01-31T20:09:40.071Z,98485.00
2023-01-31T20:12:41.603Z,98492.97
2023-01-31T20:15:43.298Z,98499.09
2023-01-31T20:18:45.075Z,98496.53
2023-01-31T20:21:46.838Z,98505.38
2023-01-31T20:24:49.941Z,98516.84
2023-01-31T20:27:51.584Z,98509.81
2023-01-31T20:30:53.637Z,98510.69
2023-01-31T20:33:55.871Z,98517.81
2023-01-31T20:36:57.960Z,98507.28
2023-01-31T20:40:01.123Z,98505.63
2023-01-31T20:43:02.697Z,98504.84
2023-01-31T20:46:05.170Z,98494.31
2023-01-31T20:49:06.966Z,98495.41
2023-01-31T20:52:08.819Z,98490.19
2023-01-31T20:55:11.868Z,98493.88
2023-01-31T20:58:13.545Z,98489.53
2023-01-31T21:01:15.379Z,98487.88
2023-01-31T21:04:17.337Z,98489.75
2023-01-31T21:07:19.047Z,98492.31
2023-01-31T21:10:22.131Z,98495.81
2023-01-31T21:13:25.056Z,98494.94
2023-01-31T21:16:26.735Z,98506.41
2023-01-31T21:19:28.526Z,98508.16
2023-01-31T21:22:30.392Z,98511.69
2023-01-31T21:25:33.387Z,98512.56
2023-01-31T21:28:35.414Z,98503.81
2023-01-31T21:31:37.270Z,98510.88
2023-01-31T21:34:40.911Z,98503.91
2023-01-31T21:37:42.724Z,98502.22
2023-01-31T21:40:45.609Z,98490.78
2023-01-31T21:43:47.337Z,98489.91
2023-01-31T21:46:49.869Z,98482.91
2023-01-31T21:49:51.462Z,98478.50
2023-01-31T21:52:53.063Z,98480.34
2023-01-31T21:56:01.479Z,98476.88
2023-01-31T21:59:03.354Z,98483.88
2023-01-31T22:02:04.932Z,98485.75
2023-01-31T22:05:07.075Z,98485.81
2023-01-31T22:08:08.736Z,98480.66
2023-01-31T22:11:12.895Z,98498.31
2023-01-31T22:14:15.470Z,98496.53
2023-01-31T22:17:17.044Z,98494.00
2023-01-31T22:20:19.204Z,98496.72
2023-01-31T22:23:20.865Z,98492.38
2023-01-31T22:26:24.765Z,98473.13
2023-01-31T22:29:26.411Z,98483.69
2023-01-31T22:32:28.110Z,98486.34
2023-01-31T22:35:29.980Z,98491.78
2023-01-31T22:38:31.633Z,98482.22
2023-01-31T22:41:34.822Z,98485.78
2023-01-31T22:44:36.377Z,98477.00
2023-01-31T22:47:37.994Z,98477.97
2023-01-31T22:50:39.647Z,98460.38
2023-01-31T22:53:41.615Z,98472.78
2023-01-31T22:56:44.529Z,98452.50
2023-01-31T22:59:46.019Z,98451.78
2023-01-31T23:02:47.792Z,98453.56
2023-01-31T23:05:50.474Z,98457.03
2023-01-31T23:08:52.527Z,98463.16
2023-01-31T23:11:55.659Z,98473.72
2023-01-31T23:14:57.259Z,98471.13
2023-01-31T23:17:59.297Z,98464.91
2023-01-31T23:21:08.588Z,98457.03
2023-01-31T23:24:10.430Z,98459.69
2023-01-31T23:27:13.386Z,98464.09
2023-01-31T23:30:15.581Z,98461.50
2023-01-31T23:33:17.226Z,98469.53
2023-01-31T23:36:18.735Z,98464.28
2023-01-31T23:39:20.268Z,98468.72
2023-01-31T23:42:23.375Z,98469.59
2023-01-31T23:45:25.077Z,98468.69
2023-01-31T23:48:26.577Z,98459.03
2023-01-31T23:51:28.656Z,98450.28
2023-01-31T23:54:30.475Z,98450.28
2023-01-31T23:57:33.371Z,98452.88
